Samus Swan — 9HA2333 — position and weather

sailwx.info

Track history (hours):
 
Tides and Currents Weather Stations Pressure Air Temp Water Temp Dewpoint Dewpoint Depression Visibility Wind Speed Wind Dir Waves Ship Positions

Samus Swan

Last reported at 2018-Jan-20 11:21 UTC. Time now 2018-Jan-21 03:11 UTC.
Position N 51°44' E 003°15'.

Length 106 m; draft 5.5 m.

Type: Ship (hazmat cat B). MMSI: 248363000.

Date/timePositionNaut miles runAvg speedWind from/ knotsBaromVisibWave heightAir tempDewpointWater temp
2018-Jan-20 11:21N 51°44' E 003°15'1310.0
2018-Jan-20 10:00N 51°33' E 003°25'611.2
2018-Jan-20 09:27N 51°28' E 003°31'512.0
2018-Jan-20 09:00N 51°25' E 003°39'713.5
2018-Jan-20 08:30N 51°21' E 003°47'713.1
2018-Jan-20 08:00N 51°24' E 003°57'3 6.9
2018-Jan-20 07:30N 51°23' E 004°02'612.3
2018-Jan-20 06:59N 51°23' E 004°13'612.3
2018-Jan-20 06:30N 51°18' E 004°16'1 2.6
2018-Jan-20 06:00N 51°17' E 004°15'1 0.1
2018-Jan-19 09:36N 51°16' E 004°13'0 0.0
2018-Jan-19 09:30N 51°16' E 004°13'1 1.4
2018-Jan-19 09:00N 51°17' E 004°14'1 1.4
2018-Jan-19 08:25N 51°17' E 004°15'0 0.0
2018-Jan-19 08:00N 51°17' E 004°15'0 0.2
2018-Jan-19 07:29N 51°17' E 004°15'1 2.7
2018-Jan-19 07:00N 51°18' E 004°16'4 7.0
2018-Jan-19 06:30N 51°21' E 004°14'3 6.8
2018-Jan-19 06:00N 51°23' E 004°09'5 9.1
2018-Jan-19 05:30N 51°23' E 004°02'3 6.6
2018-Jan-19 05:00N 51°25' E 003°58'510.4
2018-Jan-19 04:30N 51°21' E 003°53'611.1
2018-Jan-19 04:00N 51°22' E 003°44'510.9
2018-Jan-19 03:30N 51°26' E 003°39'5 7.3
2018-Jan-19 02:51N 51°25' E 003°31'2 5.6
2018-Jan-19 02:30N 51°25' E 003°28'4 8.9
2018-Jan-19 02:00N 51°24' E 003°21'714.0
2018-Jan-19 01:30N 51°24' E 003°10'713.6
2018-Jan-19 01:00N 51°23' E 002°59'713.6
2018-Jan-19 00:30N 51°22' E 002°49'4 7.8
2018-Jan-19 00:00N 51°22' E 002°42'2 4.4
2018-Jan-18 23:30N 51°22' E 002°39'2 3.0
2018-Jan-18 22:51N 51°22' E 002°36'2 4.9
2018-Jan-18 22:28N 51°22' E 002°33'3 6.7
2018-Jan-18 22:00N 51°21' E 002°28'3 6.6
2018-Jan-18 21:29N 51°20' E 002°23'3 6.7
2018-Jan-18 21:00N 51°19' E 002°18'2 4.1
2018-Jan-18 20:30N 51°20' E 002°20'3 5.7
2018-Jan-18 19:59N 51°21' E 002°25'2 3.2
2018-Jan-18 19:30N 51°20' E 002°23'2 4.3
2018-Jan-18 19:00N 51°20' E 002°20'2 4.1
2018-Jan-18 18:31N 51°19' E 002°16'2 3.2
2018-Jan-18 18:00N 51°20' E 002°19'1 2.7
2018-Jan-18 17:29N 51°20' E 002°21'1 2.7
2018-Jan-18 17:00N 51°21' E 002°23'1 2.6
2018-Jan-18 16:28N 51°21' E 002°25'1 1.8
2018-Jan-18 16:00N 51°22' E 002°26'1 1.8
2018-Jan-18 15:28N 51°22' E 002°27'1 1.0
2018-Jan-18 14:59N 51°22' E 002°27'3 5.2
2018-Jan-18 14:29N 51°21' E 002°23'3 5.4
2018-Jan-18 14:00N 51°20' E 002°19'1 1.5
2018-Jan-18 13:29N 51°20' E 002°18'2 3.1
2018-Jan-18 12:59N 51°20' E 002°20'1 2.3
2018-Jan-18 12:26N 51°21' E 002°22'1 2.0
2018-Jan-18 11:59N 51°21' E 002°23'1 2.4
2018-Jan-18 11:30N 51°22' E 002°25'2 3.5
2018-Jan-18 10:58N 51°22' E 002°28'2 3.4
2018-Jan-18 10:29N 51°23' E 002°30'1 2.8
2018-Jan-18 09:59N 51°22' E 002°32'2 3.6
2018-Jan-18 09:27N 51°20' E 002°33'0 0.6
2018-Jan-18 08:59N 51°20' E 002°33'0 0.1
2018-Jan-18 08:29N 51°20' E 002°33'0 0.1
2018-Jan-18 07:59N 51°20' E 002°33'0 0.1
2018-Jan-18 07:29N 51°20' E 002°33'0 0.0
2018-Jan-18 06:59N 51°20' E 002°33'0 0.1
2018-Jan-18 06:29N 51°20' E 002°33'0 0.3
2018-Jan-18 05:56N 51°20' E 002°33'0 0.1
2018-Jan-18 05:29N 51°20' E 002°33'0 0.1
2018-Jan-18 04:59N 51°20' E 002°33'0 0.0
2018-Jan-18 04:29N 51°20' E 002°33'0 0.0
2018-Jan-18 03:59N 51°20' E 002°33'0 0.1
2018-Jan-18 03:29N 51°20' E 002°33'0 0.1
2018-Jan-18 02:59N 51°20' E 002°33'0 0.0
2018-Jan-18 02:29N 51°20' E 002°33'0 0.0
2018-Jan-18 01:56N 51°20' E 002°33'0 0.0
2018-Jan-18 01:29N 51°20' E 002°33'0 0.0
2018-Jan-18 00:59N 51°20' E 002°33'0 0.0
2018-Jan-17 23:59N 51°20' E 002°33'0 0.1
2018-Jan-17 23:56N 51°20' E 002°33'  
2018-Jan-11 21:26N 35°58' W 005°56'511.1
2018-Jan-11 20:58N 35°58' W 005°49'611.2
2018-Jan-11 20:27N 35°57' W 005°42'510.6
2018-Jan-11 20:01N 35°58' W 005°37'510.2
2018-Jan-11 19:30N 35°59' W 005°30'5 9.9
2018-Jan-11 19:00N 35°60' W 005°24'4 8.5
2018-Jan-11 18:30N 36°01' W 005°19'5 8.8
2018-Jan-11 17:59N 36°02' W 005°14'5 8.6
2018-Jan-11 17:27N 36°03' W 005°09'4 8.6
2018-Jan-11 17:00N 36°04' W 005°04'5 9.7
2018-Jan-11 16:28N 36°05' W 004°57'510.1
2018-Jan-11 15:59N 36°06' W 004°51'610.3
2018-Jan-11 15:25N 36°07' W 004°44'510.1
2018-Jan-11 14:56N 36°07' W 004°38'5 9.6
2018-Jan-11 14:25N 36°08' W 004°32'  
Track history (hours):
 
Tides and Currents Weather Stations Pressure Air Temp Water Temp Dewpoint Dewpoint Depression Visibility Wind Speed Wind Dir Waves Ship Positions

Samus Swan

Last reported at 2018-Jan-20 11:21 UTC. Time now 2018-Jan-21 03:11 UTC.
Position N 51°44' E 003°15'.

Length 106 m; draft 5.5 m.

Type: Ship (hazmat cat B). MMSI: 248363000.

Date/timePositionNaut miles runAvg speedWind from/ knotsBaromVisibWave heightAir tempDewpointWater temp
2018-Jan-20 11:21N 51°44' E 003°15'1310.0
2018-Jan-20 10:00N 51°33' E 003°25'611.2
2018-Jan-20 09:27N 51°28' E 003°31'512.0
2018-Jan-20 09:00N 51°25' E 003°39'713.5
2018-Jan-20 08:30N 51°21' E 003°47'713.1
2018-Jan-20 08:00N 51°24' E 003°57'3 6.9
2018-Jan-20 07:30N 51°23' E 004°02'612.3
2018-Jan-20 06:59N 51°23' E 004°13'612.3
2018-Jan-20 06:30N 51°18' E 004°16'1 2.6
2018-Jan-20 06:00N 51°17' E 004°15'1 0.1
2018-Jan-19 09:36N 51°16' E 004°13'0 0.0
2018-Jan-19 09:30N 51°16' E 004°13'1 1.4
2018-Jan-19 09:00N 51°17' E 004°14'1 1.4
2018-Jan-19 08:25N 51°17' E 004°15'0 0.0
2018-Jan-19 08:00N 51°17' E 004°15'0 0.2
2018-Jan-19 07:29N 51°17' E 004°15'1 2.7
2018-Jan-19 07:00N 51°18' E 004°16'4 7.0
2018-Jan-19 06:30N 51°21' E 004°14'3 6.8
2018-Jan-19 06:00N 51°23' E 004°09'5 9.1
2018-Jan-19 05:30N 51°23' E 004°02'3 6.6
2018-Jan-19 05:00N 51°25' E 003°58'510.4
2018-Jan-19 04:30N 51°21' E 003°53'611.1
2018-Jan-19 04:00N 51°22' E 003°44'510.9
2018-Jan-19 03:30N 51°26' E 003°39'5 7.3
2018-Jan-19 02:51N 51°25' E 003°31'2 5.6
2018-Jan-19 02:30N 51°25' E 003°28'4 8.9
2018-Jan-19 02:00N 51°24' E 003°21'714.0
2018-Jan-19 01:30N 51°24' E 003°10'713.6
2018-Jan-19 01:00N 51°23' E 002°59'713.6
2018-Jan-19 00:30N 51°22' E 002°49'4 7.8
2018-Jan-19 00:00N 51°22' E 002°42'2 4.4
2018-Jan-18 23:30N 51°22' E 002°39'2 3.0
2018-Jan-18 22:51N 51°22' E 002°36'2 4.9
2018-Jan-18 22:28N 51°22' E 002°33'3 6.7
2018-Jan-18 22:00N 51°21' E 002°28'3 6.6
2018-Jan-18 21:29N 51°20' E 002°23'3 6.7
2018-Jan-18 21:00N 51°19' E 002°18'2 4.1
2018-Jan-18 20:30N 51°20' E 002°20'3 5.7
2018-Jan-18 19:59N 51°21' E 002°25'2 3.2
2018-Jan-18 19:30N 51°20' E 002°23'2 4.3
2018-Jan-18 19:00N 51°20' E 002°20'2 4.1
2018-Jan-18 18:31N 51°19' E 002°16'2 3.2
2018-Jan-18 18:00N 51°20' E 002°19'1 2.7
2018-Jan-18 17:29N 51°20' E 002°21'1 2.7
2018-Jan-18 17:00N 51°21' E 002°23'1 2.6
2018-Jan-18 16:28N 51°21' E 002°25'1 1.8
2018-Jan-18 16:00N 51°22' E 002°26'1 1.8
2018-Jan-18 15:28N 51°22' E 002°27'1 1.0
2018-Jan-18 14:59N 51°22' E 002°27'3 5.2
2018-Jan-18 14:29N 51°21' E 002°23'3 5.4
2018-Jan-18 14:00N 51°20' E 002°19'1 1.5
2018-Jan-18 13:29N 51°20' E 002°18'2 3.1
2018-Jan-18 12:59N 51°20' E 002°20'1 2.3
2018-Jan-18 12:26N 51°21' E 002°22'1 2.0
2018-Jan-18 11:59N 51°21' E 002°23'1 2.4
2018-Jan-18 11:30N 51°22' E 002°25'2 3.5
2018-Jan-18 10:58N 51°22' E 002°28'2 3.4
2018-Jan-18 10:29N 51°23' E 002°30'1 2.8
2018-Jan-18 09:59N 51°22' E 002°32'2 3.6
2018-Jan-18 09:27N 51°20' E 002°33'0 0.6
2018-Jan-18 08:59N 51°20' E 002°33'0 0.1
2018-Jan-18 08:29N 51°20' E 002°33'0 0.1
2018-Jan-18 07:59N 51°20' E 002°33'0 0.1
2018-Jan-18 07:29N 51°20' E 002°33'0 0.0
2018-Jan-18 06:59N 51°20' E 002°33'0 0.1
2018-Jan-18 06:29N 51°20' E 002°33'0 0.3
2018-Jan-18 05:56N 51°20' E 002°33'0 0.1
2018-Jan-18 05:29N 51°20' E 002°33'0 0.1
2018-Jan-18 04:59N 51°20' E 002°33'0 0.0
2018-Jan-18 04:29N 51°20' E 002°33'0 0.0
2018-Jan-18 03:59N 51°20' E 002°33'0 0.1
2018-Jan-18 03:29N 51°20' E 002°33'0 0.1
2018-Jan-18 02:59N 51°20' E 002°33'0 0.0
2018-Jan-18 02:29N 51°20' E 002°33'0 0.0
2018-Jan-18 01:56N 51°20' E 002°33'0 0.0
2018-Jan-18 01:29N 51°20' E 002°33'0 0.0
2018-Jan-18 00:59N 51°20' E 002°33'0 0.0
2018-Jan-17 23:59N 51°20' E 002°33'0 0.1
2018-Jan-17 23:56N 51°20' E 002°33'  
2018-Jan-11 21:26N 35°58' W 005°56'511.1
2018-Jan-11 20:58N 35°58' W 005°49'611.2
2018-Jan-11 20:27N 35°57' W 005°42'510.6
2018-Jan-11 20:01N 35°58' W 005°37'510.2
2018-Jan-11 19:30N 35°59' W 005°30'5 9.9
2018-Jan-11 19:00N 35°60' W 005°24'4 8.5
2018-Jan-11 18:30N 36°01' W 005°19'5 8.8
2018-Jan-11 17:59N 36°02' W 005°14'5 8.6
2018-Jan-11 17:27N 36°03' W 005°09'4 8.6
2018-Jan-11 17:00N 36°04' W 005°04'5 9.7
2018-Jan-11 16:28N 36°05' W 004°57'510.1
2018-Jan-11 15:59N 36°06' W 004°51'610.3
2018-Jan-11 15:25N 36°07' W 004°44'510.1
2018-Jan-11 14:56N 36°07' W 004°38'5 9.6
2018-Jan-11 14:25N 36°08' W 004°32'  

Dump ship's entire track history